Ruth, Michigan
Current Conditions -  °F | °C
As of 9:36 PM on Friday 28 Nov 2014 (Local Time) from KBAX Reporting Station
Light Snow Light Snow  
Wind Chill: 16°   Ceiling: 2800
Heat Index: 23°   Visibility: 2.5mi
Dew Point: 22°   Wind: 6mph
Humidity: 94%   Direction: 150°SSE
Pressure: 30.11"   Gusts: NA
Location:  43.72°N, 82.74°W
Report Text: KBAX 290236Z AUTO 15005KT 2 1/2SM -SN SCT021 BKN028 OVC034 M05/M06 A3011 RMK AO2 T10491058
Loading
Personal Weather Stations






























Interactive Weather Map New forecast layout! Learn more

10-Day Weather Forecast

Advertisements
Track Severe Weather on mobile